sensor_id;sensor_type;location;lat;lon;timestamp;P1;durP1;ratioP1;P2;durP2;ratioP2
13801;SDS011;6972;51.518;6.918;2023-07-31T00:00:40;5.32;;;3.38;;
13801;SDS011;6972;51.518;6.918;2023-07-31T00:03:06;7.63;;;3.10;;
13801;SDS011;6972;51.518;6.918;2023-07-31T00:05:32;5.50;;;3.08;;
13801;SDS011;6972;51.518;6.918;2023-07-31T00:08:01;4.65;;;3.17;;
13801;SDS011;6972;51.518;6.918;2023-07-31T00:10:28;7.47;;;3.63;;
13801;SDS011;6972;51.518;6.918;2023-07-31T00:12:54;8.55;;;3.50;;
13801;SDS011;6972;51.518;6.918;2023-07-31T00:15:20;10.27;;;3.85;;
13801;SDS011;6972;51.518;6.918;2023-07-31T00:17:46;9.32;;;3.75;;
13801;SDS011;6972;51.518;6.918;2023-07-31T00:20:12;7.38;;;3.83;;
13801;SDS011;6972;51.518;6.918;2023-07-31T00:22:38;7.25;;;3.42;;
13801;SDS011;6972;51.518;6.918;2023-07-31T00:25:05;7.50;;;4.25;;
13801;SDS011;6972;51.518;6.918;2023-07-31T00:27:31;10.57;;;4.03;;
13801;SDS011;6972;51.518;6.918;2023-07-31T00:30:00;7.38;;;3.55;;
13801;SDS011;6972;51.518;6.918;2023-07-31T00:32:26;8.30;;;4.10;;
13801;SDS011;6972;51.518;6.918;2023-07-31T00:34:52;7.32;;;3.80;;
13801;SDS011;6972;51.518;6.918;2023-07-31T00:37:18;12.75;;;4.63;;
13801;SDS011;6972;51.518;6.918;2023-07-31T00:39:44;8.68;;;4.00;;
13801;SDS011;6972;51.518;6.918;2023-07-31T00:42:10;10.05;;;4.22;;
13801;SDS011;6972;51.518;6.918;2023-07-31T00:44:36;11.05;;;4.65;;
13801;SDS011;6972;51.518;6.918;2023-07-31T00:47:02;9.80;;;4.55;;
13801;SDS011;6972;51.518;6.918;2023-07-31T00:49:28;13.05;;;5.32;;
13801;SDS011;6972;51.518;6.918;2023-07-31T00:51:54;12.90;;;4.93;;
13801;SDS011;6972;51.518;6.918;2023-07-31T00:54:22;7.65;;;4.32;;
13801;SDS011;6972;51.518;6.918;2023-07-31T00:56:48;10.95;;;4.32;;
13801;SDS011;6972;51.518;6.918;2023-07-31T00:59:16;12.00;;;4.75;;
13801;SDS011;6972;51.518;6.918;2023-07-31T01:01:43;12.68;;;4.70;;
13801;SDS011;6972;51.518;6.918;2023-07-31T01:04:09;13.52;;;4.85;;
13801;SDS011;6972;51.518;6.918;2023-07-31T01:06:37;14.75;;;4.47;;
13801;SDS011;6972;51.518;6.918;2023-07-31T01:09:12;10.70;;;4.50;;
13801;SDS011;6972;51.518;6.918;2023-07-31T01:11:53;10.80;;;4.55;;
13801;SDS011;6972;51.518;6.918;2023-07-31T01:14:22;11.50;;;4.65;;
13801;SDS011;6972;51.518;6.918;2023-07-31T01:16:48;12.15;;;4.47;;
13801;SDS011;6972;51.518;6.918;2023-07-31T01:19:14;11.38;;;4.38;;
13801;SDS011;6972;51.518;6.918;2023-07-31T01:27:14;13.05;;;3.97;;
13801;SDS011;6972;51.518;6.918;2023-07-31T01:32:07;13.27;;;4.07;;
13801;SDS011;6972;51.518;6.918;2023-07-31T01:34:36;12.73;;;4.40;;
13801;SDS011;6972;51.518;6.918;2023-07-31T01:37:02;10.15;;;4.00;;
13801;SDS011;6972;51.518;6.918;2023-07-31T01:39:28;9.90;;;3.80;;
13801;SDS011;6972;51.518;6.918;2023-07-31T01:41:54;10.20;;;3.75;;
13801;SDS011;6972;51.518;6.918;2023-07-31T01:44:20;9.85;;;4.35;;
13801;SDS011;6972;51.518;6.918;2023-07-31T01:46:46;11.00;;;3.90;;
13801;SDS011;6972;51.518;6.918;2023-07-31T01:49:12;8.68;;;4.07;;
13801;SDS011;6972;51.518;6.918;2023-07-31T01:51:38;12.75;;;4.03;;
13801;SDS011;6972;51.518;6.918;2023-07-31T01:54:04;13.70;;;4.10;;
13801;SDS011;6972;51.518;6.918;2023-07-31T01:56:31;10.65;;;3.28;;
13801;SDS011;6972;51.518;6.918;2023-07-31T01:58:57;13.05;;;3.97;;
13801;SDS011;6972;51.518;6.918;2023-07-31T02:01:23;8.82;;;3.97;;
13801;SDS011;6972;51.518;6.918;2023-07-31T02:03:49;7.63;;;3.47;;
13801;SDS011;6972;51.518;6.918;2023-07-31T02:06:15;12.20;;;4.45;;
13801;SDS011;6972;51.518;6.918;2023-07-31T02:08:41;8.98;;;3.83;;
13801;SDS011;6972;51.518;6.918;2023-07-31T02:11:07;10.82;;;3.92;;
13801;SDS011;6972;51.518;6.918;2023-07-31T02:13:33;9.10;;;3.65;;
13801;SDS011;6972;51.518;6.918;2023-07-31T02:15:59;9.02;;;3.95;;
13801;SDS011;6972;51.518;6.918;2023-07-31T02:18:26;9.55;;;3.78;;
13801;SDS011;6972;51.518;6.918;2023-07-31T02:20:52;9.38;;;4.00;;
13801;SDS011;6972;51.518;6.918;2023-07-31T02:23:18;14.45;;;3.95;;
13801;SDS011;6972;51.518;6.918;2023-07-31T02:25:45;9.38;;;4.05;;
13801;SDS011;6972;51.518;6.918;2023-07-31T02:28:11;10.75;;;4.18;;
13801;SDS011;6972;51.518;6.918;2023-07-31T02:30:37;6.88;;;3.38;;
13801;SDS011;6972;51.518;6.918;2023-07-31T02:33:04;10.07;;;3.63;;
13801;SDS011;6972;51.518;6.918;2023-07-31T02:35:30;9.52;;;3.80;;
13801;SDS011;6972;51.518;6.918;2023-07-31T02:37:56;9.40;;;3.88;;
13801;SDS011;6972;51.518;6.918;2023-07-31T02:40:22;9.98;;;4.07;;
13801;SDS011;6972;51.518;6.918;2023-07-31T02:42:48;8.57;;;3.75;;
13801;SDS011;6972;51.518;6.918;2023-07-31T02:45:14;8.15;;;3.90;;
13801;SDS011;6972;51.518;6.918;2023-07-31T02:47:40;11.70;;;4.10;;
13801;SDS011;6972;51.518;6.918;2023-07-31T02:50:06;6.45;;;3.55;;
13801;SDS011;6972;51.518;6.918;2023-07-31T02:52:33;8.88;;;3.83;;
13801;SDS011;6972;51.518;6.918;2023-07-31T02:54:59;13.43;;;3.97;;
13801;SDS011;6972;51.518;6.918;2023-07-31T02:57:25;8.52;;;4.18;;
13801;SDS011;6972;51.518;6.918;2023-07-31T02:59:51;8.05;;;4.13;;
13801;SDS011;6972;51.518;6.918;2023-07-31T03:02:17;9.10;;;4.10;;
13801;SDS011;6972;51.518;6.918;2023-07-31T03:04:43;9.80;;;4.30;;
13801;SDS011;6972;51.518;6.918;2023-07-31T03:07:09;10.05;;;4.00;;
13801;SDS011;6972;51.518;6.918;2023-07-31T03:09:35;11.07;;;4.28;;
13801;SDS011;6972;51.518;6.918;2023-07-31T03:12:01;7.72;;;3.88;;
13801;SDS011;6972;51.518;6.918;2023-07-31T03:14:28;9.45;;;4.25;;
13801;SDS011;6972;51.518;6.918;2023-07-31T03:16:54;11.20;;;3.78;;
13801;SDS011;6972;51.518;6.918;2023-07-31T03:19:20;12.43;;;3.97;;
13801;SDS011;6972;51.518;6.918;2023-07-31T03:21:46;8.85;;;3.92;;
13801;SDS011;6972;51.518;6.918;2023-07-31T03:24:12;11.18;;;4.13;;
13801;SDS011;6972;51.518;6.918;2023-07-31T03:26:38;9.98;;;4.03;;
13801;SDS011;6972;51.518;6.918;2023-07-31T03:29:06;10.90;;;4.65;;
13801;SDS011;6972;51.518;6.918;2023-07-31T03:31:32;12.32;;;4.07;;
13801;SDS011;6972;51.518;6.918;2023-07-31T03:34:00;11.30;;;4.18;;
13801;SDS011;6972;51.518;6.918;2023-07-31T03:36:26;10.60;;;4.07;;
13801;SDS011;6972;51.518;6.918;2023-07-31T03:38:53;12.02;;;3.72;;
13801;SDS011;6972;51.518;6.918;2023-07-31T03:41:19;14.00;;;4.40;;
13801;SDS011;6972;51.518;6.918;2023-07-31T03:43:46;7.65;;;3.67;;
13801;SDS011;6972;51.518;6.918;2023-07-31T03:46:12;10.90;;;4.15;;
13801;SDS011;6972;51.518;6.918;2023-07-31T03:48:38;7.63;;;3.45;;
13801;SDS011;6972;51.518;6.918;2023-07-31T03:51:04;10.02;;;3.97;;
13801;SDS011;6972;51.518;6.918;2023-07-31T03:53:30;11.70;;;4.13;;
13801;SDS011;6972;51.518;6.918;2023-07-31T03:55:56;11.18;;;4.32;;
13801;SDS011;6972;51.518;6.918;2023-07-31T03:58:22;8.77;;;3.70;;
13801;SDS011;6972;51.518;6.918;2023-07-31T04:00:48;8.68;;;3.67;;
13801;SDS011;6972;51.518;6.918;2023-07-31T04:03:14;8.75;;;3.58;;
13801;SDS011;6972;51.518;6.918;2023-07-31T04:05:40;10.00;;;3.75;;
13801;SDS011;6972;51.518;6.918;2023-07-31T04:08:06;11.40;;;3.35;;
13801;SDS011;6972;51.518;6.918;2023-07-31T04:10:32;7.75;;;4.00;;
13801;SDS011;6972;51.518;6.918;2023-07-31T04:12:59;13.93;;;4.20;;
13801;SDS011;6972;51.518;6.918;2023-07-31T04:15:26;9.85;;;3.85;;
13801;SDS011;6972;51.518;6.918;2023-07-31T04:17:52;7.93;;;3.33;;
13801;SDS011;6972;51.518;6.918;2023-07-31T04:20:18;11.90;;;3.85;;
13801;SDS011;6972;51.518;6.918;2023-07-31T04:22:44;7.60;;;3.40;;
13801;SDS011;6972;51.518;6.918;2023-07-31T04:25:10;6.88;;;3.22;;
13801;SDS011;6972;51.518;6.918;2023-07-31T04:27:36;8.38;;;3.88;;
13801;SDS011;6972;51.518;6.918;2023-07-31T04:30:02;7.28;;;3.05;;
13801;SDS011;6972;51.518;6.918;2023-07-31T04:32:28;8.38;;;3.50;;
13801;SDS011;6972;51.518;6.918;2023-07-31T04:34:54;10.13;;;3.97;;
13801;SDS011;6972;51.518;6.918;2023-07-31T04:37:21;9.23;;;3.60;;
13801;SDS011;6972;51.518;6.918;2023-07-31T04:39:47;7.43;;;3.75;;
13801;SDS011;6972;51.518;6.918;2023-07-31T04:42:13;11.02;;;3.47;;
13801;SDS011;6972;51.518;6.918;2023-07-31T04:44:39;8.98;;;3.88;;
13801;SDS011;6972;51.518;6.918;2023-07-31T04:47:05;8.45;;;3.70;;
13801;SDS011;6972;51.518;6.918;2023-07-31T04:49:31;7.93;;;3.70;;
13801;SDS011;6972;51.518;6.918;2023-07-31T04:51:58;10.73;;;3.88;;
13801;SDS011;6972;51.518;6.918;2023-07-31T04:54:24;8.85;;;4.00;;
13801;SDS011;6972;51.518;6.918;2023-07-31T04:56:50;9.82;;;3.70;;
13801;SDS011;6972;51.518;6.918;2023-07-31T04:59:17;10.40;;;3.35;;
13801;SDS011;6972;51.518;6.918;2023-07-31T05:01:43;9.60;;;3.95;;
13801;SDS011;6972;51.518;6.918;2023-07-31T05:04:12;9.77;;;4.03;;
13801;SDS011;6972;51.518;6.918;2023-07-31T05:06:39;12.55;;;3.53;;
13801;SDS011;6972;51.518;6.918;2023-07-31T05:09:05;8.88;;;3.95;;
13801;SDS011;6972;51.518;6.918;2023-07-31T05:11:31;9.80;;;3.45;;
13801;SDS011;6972;51.518;6.918;2023-07-31T05:13:57;8.70;;;4.30;;
13801;SDS011;6972;51.518;6.918;2023-07-31T05:16:23;8.63;;;3.85;;
13801;SDS011;6972;51.518;6.918;2023-07-31T05:18:49;10.98;;;4.43;;
13801;SDS011;6972;51.518;6.918;2023-07-31T05:21:15;11.93;;;3.90;;
13801;SDS011;6972;51.518;6.918;2023-07-31T05:23:41;7.63;;;4.05;;
13801;SDS011;6972;51.518;6.918;2023-07-31T05:26:07;7.38;;;3.83;;
13801;SDS011;6972;51.518;6.918;2023-07-31T05:28:37;10.35;;;4.18;;
13801;SDS011;6972;51.518;6.918;2023-07-31T05:31:04;9.07;;;3.60;;
13801;SDS011;6972;51.518;6.918;2023-07-31T05:33:30;9.05;;;4.40;;
13801;SDS011;6972;51.518;6.918;2023-07-31T05:35:57;6.30;;;3.90;;
13801;SDS011;6972;51.518;6.918;2023-07-31T05:38:23;7.30;;;3.85;;
13801;SDS011;6972;51.518;6.918;2023-07-31T05:40:49;9.85;;;4.00;;
13801;SDS011;6972;51.518;6.918;2023-07-31T05:43:15;7.78;;;3.65;;
13801;SDS011;6972;51.518;6.918;2023-07-31T05:45:44;11.43;;;4.03;;
13801;SDS011;6972;51.518;6.918;2023-07-31T05:48:10;5.63;;;3.42;;
13801;SDS011;6972;51.518;6.918;2023-07-31T05:50:36;8.45;;;4.00;;
13801;SDS011;6972;51.518;6.918;2023-07-31T05:53:04;8.02;;;3.90;;
13801;SDS011;6972;51.518;6.918;2023-07-31T05:55:31;7.07;;;3.97;;
13801;SDS011;6972;51.518;6.918;2023-07-31T05:57:57;9.38;;;4.30;;
13801;SDS011;6972;51.518;6.918;2023-07-31T06:00:23;6.43;;;3.75;;
13801;SDS011;6972;51.518;6.918;2023-07-31T06:02:49;7.28;;;4.13;;
13801;SDS011;6972;51.518;6.918;2023-07-31T06:05:16;7.18;;;4.10;;
13801;SDS011;6972;51.518;6.918;2023-07-31T06:07:42;7.40;;;4.00;;
13801;SDS011;6972;51.518;6.918;2023-07-31T06:10:08;8.35;;;4.18;;
13801;SDS011;6972;51.518;6.918;2023-07-31T06:12:35;7.22;;;3.65;;
13801;SDS011;6972;51.518;6.918;2023-07-31T06:15:02;10.13;;;4.45;;
13801;SDS011;6972;51.518;6.918;2023-07-31T06:17:28;8.60;;;4.90;;
13801;SDS011;6972;51.518;6.918;2023-07-31T06:19:55;6.38;;;4.13;;
13801;SDS011;6972;51.518;6.918;2023-07-31T06:22:22;7.68;;;4.10;;
13801;SDS011;6972;51.518;6.918;2023-07-31T06:24:48;7.53;;;4.20;;
13801;SDS011;6972;51.518;6.918;2023-07-31T06:27:14;8.73;;;4.82;;
13801;SDS011;6972;51.518;6.918;2023-07-31T06:29:40;10.23;;;4.15;;
13801;SDS011;6972;51.518;6.918;2023-07-31T06:32:06;7.50;;;4.20;;
13801;SDS011;6972;51.518;6.918;2023-07-31T06:34:36;10.52;;;4.43;;
13801;SDS011;6972;51.518;6.918;2023-07-31T06:37:02;6.82;;;3.97;;
13801;SDS011;6972;51.518;6.918;2023-07-31T06:39:28;8.60;;;4.20;;
13801;SDS011;6972;51.518;6.918;2023-07-31T06:41:54;10.15;;;4.38;;
13801;SDS011;6972;51.518;6.918;2023-07-31T06:44:20;15.57;;;4.75;;
13801;SDS011;6972;51.518;6.918;2023-07-31T06:46:46;8.07;;;4.20;;
13801;SDS011;6972;51.518;6.918;2023-07-31T06:49:12;7.68;;;4.28;;
13801;SDS011;6972;51.518;6.918;2023-07-31T06:51:40;6.90;;;4.05;;
13801;SDS011;6972;51.518;6.918;2023-07-31T06:54:06;5.68;;;3.97;;
13801;SDS011;6972;51.518;6.918;2023-07-31T06:56:32;7.30;;;4.28;;
13801;SDS011;6972;51.518;6.918;2023-07-31T06:59:01;6.78;;;4.03;;
13801;SDS011;6972;51.518;6.918;2023-07-31T07:01:27;7.88;;;4.05;;
13801;SDS011;6972;51.518;6.918;2023-07-31T07:03:53;7.50;;;4.00;;
13801;SDS011;6972;51.518;6.918;2023-07-31T07:06:19;4.93;;;3.95;;
13801;SDS011;6972;51.518;6.918;2023-07-31T07:08:45;7.38;;;4.18;;
13801;SDS011;6972;51.518;6.918;2023-07-31T07:11:12;7.22;;;4.30;;
13801;SDS011;6972;51.518;6.918;2023-07-31T07:13:38;8.18;;;4.63;;
13801;SDS011;6972;51.518;6.918;2023-07-31T07:16:04;7.72;;;4.50;;
13801;SDS011;6972;51.518;6.918;2023-07-31T07:18:30;8.95;;;4.18;;
13801;SDS011;6972;51.518;6.918;2023-07-31T07:20:56;6.75;;;4.30;;
13801;SDS011;6972;51.518;6.918;2023-07-31T07:23:23;7.05;;;4.43;;
13801;SDS011;6972;51.518;6.918;2023-07-31T07:25:49;7.18;;;4.40;;
13801;SDS011;6972;51.518;6.918;2023-07-31T07:28:16;11.30;;;4.55;;
13801;SDS011;6972;51.518;6.918;2023-07-31T07:30:42;9.57;;;5.30;;
13801;SDS011;6972;51.518;6.918;2023-07-31T07:33:08;8.20;;;4.47;;
13801;SDS011;6972;51.518;6.918;2023-07-31T07:35:34;7.65;;;4.22;;
13801;SDS011;6972;51.518;6.918;2023-07-31T07:38:01;9.07;;;4.28;;
13801;SDS011;6972;51.518;6.918;2023-07-31T07:40:28;9.23;;;4.80;;
13801;SDS011;6972;51.518;6.918;2023-07-31T07:42:54;8.32;;;4.38;;
13801;SDS011;6972;51.518;6.918;2023-07-31T07:45:20;7.72;;;4.75;;
13801;SDS011;6972;51.518;6.918;2023-07-31T07:47:46;7.28;;;4.75;;
13801;SDS011;6972;51.518;6.918;2023-07-31T07:50:12;6.75;;;4.50;;
13801;SDS011;6972;51.518;6.918;2023-07-31T07:52:38;8.52;;;4.72;;
13801;SDS011;6972;51.518;6.918;2023-07-31T07:55:04;7.95;;;4.43;;
13801;SDS011;6972;51.518;6.918;2023-07-31T07:57:30;8.55;;;4.43;;
13801;SDS011;6972;51.518;6.918;2023-07-31T07:59:56;7.13;;;4.32;;
13801;SDS011;6972;51.518;6.918;2023-07-31T08:02:23;9.05;;;4.57;;
13801;SDS011;6972;51.518;6.918;2023-07-31T08:04:49;7.18;;;4.38;;
13801;SDS011;6972;51.518;6.918;2023-07-31T08:07:15;6.70;;;3.90;;
13801;SDS011;6972;51.518;6.918;2023-07-31T08:09:41;5.10;;;3.08;;
13801;SDS011;6972;51.518;6.918;2023-07-31T08:12:07;7.32;;;3.22;;
13801;SDS011;6972;51.518;6.918;2023-07-31T08:14:36;5.47;;;3.40;;
13801;SDS011;6972;51.518;6.918;2023-07-31T08:17:02;6.95;;;3.72;;
13801;SDS011;6972;51.518;6.918;2023-07-31T08:19:32;6.95;;;3.58;;
13801;SDS011;6972;51.518;6.918;2023-07-31T08:21:58;5.13;;;3.50;;
13801;SDS011;6972;51.518;6.918;2023-07-31T08:24:24;6.10;;;3.90;;
13801;SDS011;6972;51.518;6.918;2023-07-31T08:26:50;7.38;;;4.05;;
13801;SDS011;6972;51.518;6.918;2023-07-31T08:29:16;6.50;;;3.63;;
13801;SDS011;6972;51.518;6.918;2023-07-31T08:31:42;7.53;;;3.83;;
13801;SDS011;6972;51.518;6.918;2023-07-31T08:34:08;8.50;;;3.90;;
13801;SDS011;6972;51.518;6.918;2023-07-31T08:36:34;5.75;;;3.55;;
13801;SDS011;6972;51.518;6.918;2023-07-31T08:39:00;8.05;;;4.43;;
13801;SDS011;6972;51.518;6.918;2023-07-31T08:41:27;6.90;;;4.28;;
13801;SDS011;6972;51.518;6.918;2023-07-31T08:43:53;8.02;;;3.90;;
13801;SDS011;6972;51.518;6.918;2023-07-31T08:46:20;5.78;;;3.50;;
13801;SDS011;6972;51.518;6.918;2023-07-31T08:48:48;6.40;;;4.10;;
13801;SDS011;6972;51.518;6.918;2023-07-31T08:51:14;8.60;;;3.50;;
13801;SDS011;6972;51.518;6.918;2023-07-31T08:53:40;7.68;;;3.67;;
13801;SDS011;6972;51.518;6.918;2023-07-31T08:56:07;3.90;;;3.03;;
13801;SDS011;6972;51.518;6.918;2023-07-31T08:58:36;8.02;;;3.85;;
13801;SDS011;6972;51.518;6.918;2023-07-31T09:01:03;5.40;;;3.28;;
13801;SDS011;6972;51.518;6.918;2023-07-31T09:03:33;5.97;;;3.60;;
13801;SDS011;6972;51.518;6.918;2023-07-31T09:06:02;5.93;;;3.50;;
13801;SDS011;6972;51.518;6.918;2023-07-31T09:08:31;5.53;;;3.10;;
13801;SDS011;6972;51.518;6.918;2023-07-31T09:11:00;7.20;;;3.83;;
13801;SDS011;6972;51.518;6.918;2023-07-31T09:13:29;6.10;;;3.20;;
13801;SDS011;6972;51.518;6.918;2023-07-31T09:15:55;5.82;;;3.35;;
13801;SDS011;6972;51.518;6.918;2023-07-31T09:18:21;5.63;;;3.08;;
13801;SDS011;6972;51.518;6.918;2023-07-31T09:21:03;4.53;;;3.35;;
13801;SDS011;6972;51.518;6.918;2023-07-31T09:23:45;7.13;;;4.05;;
13801;SDS011;6972;51.518;6.918;2023-07-31T09:29:18;6.68;;;4.00;;
13801;SDS011;6972;51.518;6.918;2023-07-31T09:31:44;7.95;;;4.82;;
13801;SDS011;6972;51.518;6.918;2023-07-31T09:34:11;9.02;;;3.92;;
13801;SDS011;6972;51.518;6.918;2023-07-31T09:39:11;5.78;;;3.60;;
13801;SDS011;6972;51.518;6.918;2023-07-31T09:41:38;5.82;;;3.70;;
13801;SDS011;6972;51.518;6.918;2023-07-31T09:44:04;4.88;;;3.17;;
13801;SDS011;6972;51.518;6.918;2023-07-31T09:46:31;5.07;;;3.25;;
13801;SDS011;6972;51.518;6.918;2023-07-31T09:51:32;4.10;;;3.17;;
13801;SDS011;6972;51.518;6.918;2023-07-31T09:54:03;8.20;;;3.30;;
13801;SDS011;6972;51.518;6.918;2023-07-31T09:56:29;5.50;;;3.33;;
13801;SDS011;6972;51.518;6.918;2023-07-31T09:58:56;6.15;;;3.50;;
13801;SDS011;6972;51.518;6.918;2023-07-31T10:01:23;4.20;;;3.00;;
13801;SDS011;6972;51.518;6.918;2023-07-31T10:03:49;5.68;;;3.30;;
13801;SDS011;6972;51.518;6.918;2023-07-31T10:06:15;3.85;;;3.08;;
13801;SDS011;6972;51.518;6.918;2023-07-31T10:08:44;4.40;;;3.30;;
13801;SDS011;6972;51.518;6.918;2023-07-31T10:11:13;4.75;;;3.38;;
13801;SDS011;6972;51.518;6.918;2023-07-31T10:13:40;4.70;;;3.22;;
13801;SDS011;6972;51.518;6.918;2023-07-31T10:16:07;3.30;;;2.85;;
13801;SDS011;6972;51.518;6.918;2023-07-31T10:18:36;3.88;;;2.65;;
13801;SDS011;6972;51.518;6.918;2023-07-31T10:21:03;4.03;;;2.78;;
13801;SDS011;6972;51.518;6.918;2023-07-31T10:23:29;7.78;;;3.08;;
13801;SDS011;6972;51.518;6.918;2023-07-31T10:25:55;4.53;;;3.00;;
13801;SDS011;6972;51.518;6.918;2023-07-31T10:28:25;3.97;;;3.10;;
13801;SDS011;6972;51.518;6.918;2023-07-31T10:30:57;5.00;;;3.30;;
13801;SDS011;6972;51.518;6.918;2023-07-31T10:33:36;8.23;;;3.30;;
13801;SDS011;6972;51.518;6.918;2023-07-31T10:39:37;5.25;;;3.38;;
13801;SDS011;6972;51.518;6.918;2023-07-31T10:42:13;3.88;;;3.20;;
13801;SDS011;6972;51.518;6.918;2023-07-31T10:44:48;7.10;;;3.50;;
13801;SDS011;6972;51.518;6.918;2023-07-31T10:47:15;6.13;;;3.65;;
13801;SDS011;6972;51.518;6.918;2023-07-31T10:49:44;5.95;;;3.28;;
13801;SDS011;6972;51.518;6.918;2023-07-31T10:52:10;5.95;;;3.65;;
13801;SDS011;6972;51.518;6.918;2023-07-31T10:54:38;4.82;;;3.55;;
13801;SDS011;6972;51.518;6.918;2023-07-31T10:57:18;5.63;;;3.40;;
13801;SDS011;6972;51.518;6.918;2023-07-31T10:59:44;7.45;;;3.78;;
13801;SDS011;6972;51.518;6.918;2023-07-31T11:02:23;4.85;;;3.33;;
13801;SDS011;6972;51.518;6.918;2023-07-31T11:05:07;6.25;;;3.20;;
13801;SDS011;6972;51.518;6.918;2023-07-31T11:07:49;5.63;;;2.95;;
13801;SDS011;6972;51.518;6.918;2023-07-31T11:10:18;5.60;;;3.42;;
13801;SDS011;6972;51.518;6.918;2023-07-31T11:12:45;6.03;;;3.25;;
13801;SDS011;6972;51.518;6.918;2023-07-31T11:15:12;5.07;;;3.10;;
13801;SDS011;6972;51.518;6.918;2023-07-31T11:17:38;4.60;;;2.90;;
13801;SDS011;6972;51.518;6.918;2023-07-31T11:20:05;4.30;;;3.10;;
13801;SDS011;6972;51.518;6.918;2023-07-31T11:22:32;7.82;;;3.45;;
13801;SDS011;6972;51.518;6.918;2023-07-31T11:24:59;4.78;;;2.83;;
13801;SDS011;6972;51.518;6.918;2023-07-31T11:27:27;6.40;;;3.17;;
13801;SDS011;6972;51.518;6.918;2023-07-31T11:30:01;6.53;;;3.10;;
13801;SDS011;6972;51.518;6.918;2023-07-31T11:32:28;8.18;;;3.30;;
13801;SDS011;6972;51.518;6.918;2023-07-31T11:34:54;6.55;;;3.03;;
13801;SDS011;6972;51.518;6.918;2023-07-31T11:37:20;3.65;;;2.95;;
13801;SDS011;6972;51.518;6.918;2023-07-31T11:39:59;5.50;;;3.20;;
13801;SDS011;6972;51.518;6.918;2023-07-31T11:42:25;6.35;;;3.40;;
13801;SDS011;6972;51.518;6.918;2023-07-31T11:44:51;6.28;;;3.08;;
13801;SDS011;6972;51.518;6.918;2023-07-31T11:47:18;5.47;;;3.38;;
13801;SDS011;6972;51.518;6.918;2023-07-31T11:49:44;8.18;;;3.15;;
13801;SDS011;6972;51.518;6.918;2023-07-31T11:52:10;4.53;;;3.20;;
13801;SDS011;6972;51.518;6.918;2023-07-31T11:54:37;3.85;;;3.05;;
13801;SDS011;6972;51.518;6.918;2023-07-31T11:57:07;4.25;;;3.05;;
13801;SDS011;6972;51.518;6.918;2023-07-31T11:59:37;6.43;;;3.50;;
13801;SDS011;6972;51.518;6.918;2023-07-31T12:02:03;5.55;;;3.22;;
13801;SDS011;6972;51.518;6.918;2023-07-31T12:04:29;7.78;;;2.92;;
13801;SDS011;6972;51.518;6.918;2023-07-31T12:06:56;5.68;;;3.08;;
13801;SDS011;6972;51.518;6.918;2023-07-31T12:09:22;4.45;;;2.45;;
13801;SDS011;6972;51.518;6.918;2023-07-31T12:11:48;4.30;;;2.92;;
13801;SDS011;6972;51.518;6.918;2023-07-31T12:14:21;7.57;;;3.08;;
13801;SDS011;6972;51.518;6.918;2023-07-31T12:16:53;4.72;;;2.65;;
13801;SDS011;6972;51.518;6.918;2023-07-31T12:19:21;3.75;;;2.92;;
13801;SDS011;6972;51.518;6.918;2023-07-31T12:21:47;7.10;;;3.03;;
13801;SDS011;6972;51.518;6.918;2023-07-31T12:24:13;3.83;;;2.55;;
13801;SDS011;6972;51.518;6.918;2023-07-31T12:26:39;4.22;;;3.00;;
13801;SDS011;6972;51.518;6.918;2023-07-31T12:29:06;4.55;;;2.65;;
13801;SDS011;6972;51.518;6.918;2023-07-31T12:31:36;3.92;;;2.50;;
13801;SDS011;6972;51.518;6.918;2023-07-31T12:34:02;3.92;;;2.47;;
13801;SDS011;6972;51.518;6.918;2023-07-31T12:36:28;4.53;;;2.85;;
13801;SDS011;6972;51.518;6.918;2023-07-31T12:38:57;6.10;;;2.85;;
13801;SDS011;6972;51.518;6.918;2023-07-31T12:41:23;5.15;;;3.17;;
13801;SDS011;6972;51.518;6.918;2023-07-31T12:43:50;3.55;;;2.50;;
13801;SDS011;6972;51.518;6.918;2023-07-31T12:46:16;5.93;;;2.88;;
13801;SDS011;6972;51.518;6.918;2023-07-31T12:48:42;3.25;;;2.42;;
13801;SDS011;6972;51.518;6.918;2023-07-31T12:51:08;3.88;;;2.50;;
13801;SDS011;6972;51.518;6.918;2023-07-31T12:53:35;5.43;;;2.55;;
13801;SDS011;6972;51.518;6.918;2023-07-31T12:56:01;2.92;;;2.35;;
13801;SDS011;6972;51.518;6.918;2023-07-31T12:58:28;3.35;;;2.20;;
13801;SDS011;6972;51.518;6.918;2023-07-31T13:00:54;2.20;;;1.88;;
13801;SDS011;6972;51.518;6.918;2023-07-31T13:03:20;2.90;;;2.10;;
13801;SDS011;6972;51.518;6.918;2023-07-31T13:05:46;4.40;;;2.70;;
13801;SDS011;6972;51.518;6.918;2023-07-31T13:08:12;3.42;;;2.45;;
13801;SDS011;6972;51.518;6.918;2023-07-31T13:10:40;4.22;;;2.58;;
13801;SDS011;6972;51.518;6.918;2023-07-31T13:13:06;3.85;;;2.70;;
13801;SDS011;6972;51.518;6.918;2023-07-31T13:15:32;4.63;;;2.70;;
13801;SDS011;6972;51.518;6.918;2023-07-31T13:18:07;4.90;;;2.60;;
13801;SDS011;6972;51.518;6.918;2023-07-31T13:20:39;3.10;;;2.33;;
13801;SDS011;6972;51.518;6.918;2023-07-31T13:23:05;3.03;;;2.70;;
13801;SDS011;6972;51.518;6.918;2023-07-31T13:25:32;4.75;;;2.85;;
13801;SDS011;6972;51.518;6.918;2023-07-31T13:27:58;4.00;;;2.70;;
13801;SDS011;6972;51.518;6.918;2023-07-31T13:30:24;4.50;;;2.88;;
13801;SDS011;6972;51.518;6.918;2023-07-31T13:32:50;7.40;;;2.63;;
13801;SDS011;6972;51.518;6.918;2023-07-31T13:35:16;3.38;;;2.67;;
13801;SDS011;6972;51.518;6.918;2023-07-31T13:37:42;4.22;;;2.80;;
13801;SDS011;6972;51.518;6.918;2023-07-31T13:40:08;4.18;;;2.78;;
13801;SDS011;6972;51.518;6.918;2023-07-31T13:42:36;4.50;;;3.20;;
13801;SDS011;6972;51.518;6.918;2023-07-31T13:45:02;6.20;;;2.88;;
13801;SDS011;6972;51.518;6.918;2023-07-31T13:47:28;5.05;;;2.80;;
13801;SDS011;6972;51.518;6.918;2023-07-31T13:49:56;5.40;;;2.72;;
13801;SDS011;6972;51.518;6.918;2023-07-31T13:52:22;3.53;;;2.83;;
13801;SDS011;6972;51.518;6.918;2023-07-31T13:54:48;3.55;;;3.00;;
13801;SDS011;6972;51.518;6.918;2023-07-31T13:57:14;4.00;;;3.05;;
13801;SDS011;6972;51.518;6.918;2023-07-31T13:59:40;5.22;;;2.95;;
13801;SDS011;6972;51.518;6.918;2023-07-31T14:02:06;4.20;;;2.40;;
13801;SDS011;6972;51.518;6.918;2023-07-31T14:04:33;3.65;;;2.50;;
13801;SDS011;6972;51.518;6.918;2023-07-31T14:06:59;4.53;;;2.30;;
13801;SDS011;6972;51.518;6.918;2023-07-31T14:09:25;3.30;;;2.90;;
13801;SDS011;6972;51.518;6.918;2023-07-31T14:11:52;4.50;;;2.70;;
13801;SDS011;6972;51.518;6.918;2023-07-31T14:14:18;3.40;;;2.78;;
13801;SDS011;6972;51.518;6.918;2023-07-31T14:16:44;4.38;;;3.00;;
13801;SDS011;6972;51.518;6.918;2023-07-31T14:19:11;5.40;;;3.03;;
13801;SDS011;6972;51.518;6.918;2023-07-31T14:21:37;5.30;;;2.80;;
13801;SDS011;6972;51.518;6.918;2023-07-31T14:24:03;3.55;;;2.35;;
13801;SDS011;6972;51.518;6.918;2023-07-31T14:26:29;3.60;;;2.40;;
13801;SDS011;6972;51.518;6.918;2023-07-31T14:28:55;5.07;;;2.58;;
13801;SDS011;6972;51.518;6.918;2023-07-31T14:31:21;4.47;;;2.88;;
13801;SDS011;6972;51.518;6.918;2023-07-31T14:33:47;3.83;;;2.60;;
13801;SDS011;6972;51.518;6.918;2023-07-31T14:36:13;3.40;;;2.63;;
13801;SDS011;6972;51.518;6.918;2023-07-31T14:38:39;5.78;;;3.10;;
13801;SDS011;6972;51.518;6.918;2023-07-31T14:41:05;3.80;;;3.00;;
13801;SDS011;6972;51.518;6.918;2023-07-31T14:43:32;5.85;;;3.00;;
13801;SDS011;6972;51.518;6.918;2023-07-31T14:45:58;2.75;;;2.33;;
13801;SDS011;6972;51.518;6.918;2023-07-31T14:48:24;4.50;;;3.20;;
13801;SDS011;6972;51.518;6.918;2023-07-31T14:50:50;4.45;;;3.20;;
13801;SDS011;6972;51.518;6.918;2023-07-31T14:53:16;7.40;;;3.13;;
13801;SDS011;6972;51.518;6.918;2023-07-31T14:55:42;5.00;;;3.05;;
13801;SDS011;6972;51.518;6.918;2023-07-31T14:58:08;3.80;;;2.70;;
13801;SDS011;6972;51.518;6.918;2023-07-31T15:00:36;3.67;;;2.70;;
13801;SDS011;6972;51.518;6.918;2023-07-31T15:03:04;4.78;;;3.20;;
13801;SDS011;6972;51.518;6.918;2023-07-31T15:05:30;3.88;;;2.65;;
13801;SDS011;6972;51.518;6.918;2023-07-31T15:07:56;3.15;;;2.55;;
13801;SDS011;6972;51.518;6.918;2023-07-31T15:10:22;5.35;;;2.92;;
13801;SDS011;6972;51.518;6.918;2023-07-31T15:12:48;5.53;;;3.00;;
13801;SDS011;6972;51.518;6.918;2023-07-31T15:15:15;5.22;;;3.20;;